CheckWX is a tool to help pilots better visualize weather data.  It is not intended as a substitute for an official pre-flight weather briefing.

00:04:26 UTC

KIGM METAR
Kingman Airport
Kingman, Arizona, USA
Current

1 hour ago

KIGM 242251Z AUTO 00000KT 10SM CLR 29/M01 A2996 RMK AO2 SLP090 T02891006
Observed
Apr-24 @ 22:51 UTC
Visibility
10 SM
Flight Rules
VFR
Cloud Levels
  • Clear skies
Temperature
29°C / 84°F
Dewpoint
-1°C / 30°F
Humidity
14%
Altimeter
29.96" Hg
Pressure
1014.52 hPa
Previous

2 hours ago

KIGM 242151Z AUTO 26006KT 10SM CLR 29/00 A2998 RMK AO2 SLP096 T02890000
Observed
Apr-24 @ 21:51 UTC
Wind
  • 260° at 6 KTS
Visibility
10 SM
Flight Rules
VFR
Cloud Levels
  • Clear skies
Temperature
29°C / 84°F
Dewpoint
C / 32°F
Humidity
15%
Altimeter
29.98" Hg
Pressure
1015.22 hPa
Previous

3 hours ago

KIGM 242051Z AUTO 33009KT 10SM CLR 28/M01 A3001 RMK AO2 SLP101 T02831011 58015
Observed
Apr-24 @ 20:51 UTC
Wind
  • 330° at 9 KTS
Visibility
10 SM
Flight Rules
VFR
Cloud Levels
  • Clear skies
Temperature
28°C / 82°F
Dewpoint
-1°C / 30°F
Humidity
15%
Altimeter
30.01" Hg
Pressure
1016.22 hPa